createdAt,value
2018-02-06T00:00:14.463Z,-4.30
2018-02-06T00:02:41.921Z,-4.40
2018-02-06T00:05:10.186Z,-4.40
2018-02-06T00:07:37.654Z,-4.40
2018-02-06T00:10:05.127Z,-4.30
2018-02-06T00:12:32.657Z,-4.30
2018-02-06T00:15:00.242Z,-4.30
2018-02-06T00:17:27.737Z,-4.30
2018-02-06T00:19:55.203Z,-4.30
2018-02-06T00:22:22.677Z,-4.40
2018-02-06T00:24:50.156Z,-4.40
2018-02-06T00:27:18.506Z,-4.40
2018-02-06T00:29:45.992Z,-4.40
2018-02-06T00:32:13.453Z,-4.40
2018-02-06T00:34:40.933Z,-4.50
2018-02-06T00:37:08.444Z,-4.50
2018-02-06T00:39:36.353Z,-4.50
2018-02-06T00:42:03.921Z,-4.50
2018-02-06T00:44:31.391Z,-4.50
2018-02-06T00:46:58.868Z,-4.50
2018-02-06T00:49:26.350Z,-4.40
2018-02-06T00:51:53.820Z,-4.40
2018-02-06T00:54:21.422Z,-4.30
2018-02-06T00:56:48.916Z,-4.30
2018-02-06T00:59:16.390Z,-4.20
2018-02-06T01:01:43.869Z,-4.20
2018-02-06T01:04:11.367Z,-4.20
2018-02-06T01:06:38.833Z,-4.10
2018-02-06T01:09:07.152Z,-4.10
2018-02-06T01:11:34.731Z,-4.10
2018-02-06T01:14:02.316Z,-4.10
2018-02-06T01:16:29.792Z,-4.10
2018-02-06T01:18:57.288Z,-4.10
2018-02-06T01:21:24.752Z,-4.10
2018-02-06T01:23:52.233Z,-4.10
2018-02-06T01:26:19.729Z,-4.00
2018-02-06T01:28:47.214Z,-4.00
2018-02-06T01:31:14.675Z,-4.00
2018-02-06T01:33:42.184Z,-4.00
2018-02-06T01:36:09.671Z,-4.10
2018-02-06T01:38:37.864Z,-4.10
2018-02-06T01:41:05.330Z,-4.20
2018-02-06T01:43:32.819Z,-4.30
2018-02-06T01:46:00.289Z,-4.40
2018-02-06T01:48:27.758Z,-4.40
2018-02-06T01:50:55.218Z,-4.50
2018-02-06T01:53:22.683Z,-4.50
2018-02-06T01:55:50.941Z,-4.60
2018-02-06T01:58:18.422Z,-4.60
2018-02-06T02:00:45.886Z,-4.60
2018-02-06T02:03:13.377Z,-4.60
2018-02-06T02:05:40.850Z,-4.60
2018-02-06T02:08:08.329Z,-4.60
2018-02-06T02:10:35.842Z,-4.60
2018-02-06T02:13:03.301Z,-4.60
2018-02-06T02:15:30.806Z,-4.60
2018-02-06T02:17:58.267Z,-4.70
2018-02-06T02:20:25.745Z,-4.60
2018-02-06T02:22:53.227Z,-4.70
2018-02-06T02:25:20.766Z,-4.60
2018-02-06T02:27:48.314Z,-4.50
2018-02-06T02:30:15.794Z,-4.60
2018-02-06T02:32:43.269Z,-4.60
2018-02-06T02:35:10.752Z,-4.50
2018-02-06T02:37:38.217Z,-4.40
2018-02-06T02:40:05.726Z,-4.30
2018-02-06T04:40:37.005Z,-5.70
2018-02-06T04:43:04.465Z,-6.00
2018-02-06T04:45:31.929Z,-5.80
2018-02-06T04:47:59.449Z,-5.80
2018-02-06T04:50:26.910Z,-5.80
2018-02-06T04:52:54.381Z,-5.90
2018-02-06T04:55:21.853Z,-5.90
2018-02-06T04:57:49.581Z,-6.00
2018-02-06T05:00:17.057Z,-6.00
2018-02-06T05:02:44.545Z,-6.00
2018-02-06T05:05:12.002Z,-6.00
2018-02-06T05:07:39.505Z,-6.00
2018-02-06T05:10:06.976Z,-6.00
2018-02-06T05:12:34.449Z,-6.00
2018-02-06T05:15:01.950Z,-6.00
2018-02-06T05:17:29.421Z,-6.10
2018-02-06T05:19:56.921Z,-6.00
2018-02-06T05:22:24.389Z,-5.90
2018-02-06T05:24:51.862Z,-6.00
2018-02-06T05:27:19.341Z,-6.00
2018-02-06T05:29:46.811Z,-6.00
2018-02-06T05:32:14.284Z,-5.90
2018-02-06T05:34:42.513Z,-5.90
2018-02-06T05:37:10.037Z,-5.90
2018-02-06T05:39:37.497Z,-5.80
2018-02-06T05:42:05.730Z,-5.60
2018-02-06T05:44:33.199Z,-5.70
2018-02-06T05:47:00.662Z,-5.60
2018-02-06T05:49:28.136Z,-5.70
2018-02-06T05:51:55.740Z,-5.60
2018-02-06T05:54:23.261Z,-5.60
2018-02-06T05:56:50.757Z,-5.60
2018-02-06T05:59:18.253Z,-5.70
2018-02-06T06:01:46.719Z,-5.70
2018-02-06T06:04:14.249Z,-5.80
2018-02-06T06:06:41.737Z,-5.80
2018-02-06T06:09:09.351Z,-5.90
2018-02-06T06:11:37.707Z,-5.90
2018-02-06T06:14:05.211Z,-5.90
2018-02-06T06:16:32.686Z,-5.90
2018-02-06T06:19:00.157Z,-6.00
2018-02-06T06:21:27.653Z,-6.10
2018-02-06T06:23:55.138Z,-6.00
2018-02-06T06:26:22.619Z,-6.00
2018-02-06T06:28:50.853Z,-6.00
2018-02-06T06:31:19.085Z,-6.00
2018-02-06T06:33:46.585Z,-6.10
2018-02-06T06:36:14.074Z,-6.10
2018-02-06T06:38:41.542Z,-6.00
2018-02-06T06:41:09.009Z,-6.00
2018-02-06T06:43:36.477Z,-5.90
2018-02-06T06:46:03.998Z,-5.80
2018-02-06T06:48:31.481Z,-5.70
2018-02-06T06:50:58.961Z,-5.60
2018-02-06T06:53:26.445Z,-5.50
2018-02-06T06:55:53.931Z,-5.40
2018-02-06T06:58:21.549Z,-5.40
2018-02-06T07:00:49.790Z,-5.30
2018-02-06T07:03:17.258Z,-5.30
2018-02-06T07:05:44.729Z,-5.30
2018-02-06T07:08:12.249Z,-5.30
2018-02-06T07:10:39.722Z,-5.20
2018-02-06T07:13:07.189Z,-5.30
2018-02-06T07:15:34.701Z,-5.20
2018-02-06T07:18:02.177Z,-5.10
2018-02-06T07:20:29.637Z,-4.90
2018-02-06T07:22:57.141Z,-4.80
2018-02-06T07:25:24.628Z,-4.70
2018-02-06T07:27:52.161Z,-4.30
2018-02-06T07:30:19.721Z,-3.60
2018-02-06T07:32:47.204Z,-3.10
2018-02-06T07:35:14.671Z,-2.90
2018-02-06T07:37:42.145Z,-2.80
2018-02-06T07:40:09.613Z,-2.70
2018-02-06T07:42:37.131Z,-2.30
2018-02-06T07:45:04.588Z,-1.00
2018-02-06T07:47:32.053Z,0.10
2018-02-06T07:49:59.518Z,1.40
2018-02-06T07:52:27.744Z,2.90
2018-02-06T07:54:55.203Z,2.90
2018-02-06T07:57:22.741Z,3.20
2018-02-06T07:59:50.197Z,4.40
2018-02-06T08:02:17.657Z,5.00
2018-02-06T08:04:45.113Z,6.90
2018-02-06T08:07:12.565Z,7.40
2018-02-06T08:09:40.039Z,8.20
2018-02-06T08:12:07.526Z,7.30
2018-02-06T08:14:34.990Z,7.10
2018-02-06T08:17:02.507Z,5.90
2018-02-06T08:19:29.966Z,5.30
2018-02-06T08:21:57.456Z,4.30
2018-02-06T08:24:24.926Z,3.10
2018-02-06T08:26:52.391Z,2.10
2018-02-06T08:29:19.857Z,1.40
2018-02-06T08:31:47.382Z,0.70
2018-02-06T08:34:14.850Z,0.40
2018-02-06T08:36:42.341Z,0.10
2018-02-06T08:39:09.794Z,0.00
2018-02-06T08:41:37.246Z,-0.10
2018-02-06T08:44:04.720Z,0.00
2018-02-06T08:46:32.175Z,-0.10
2018-02-06T08:48:59.643Z,-0.20
2018-02-06T08:51:27.139Z,-0.20
2018-02-06T08:53:54.609Z,-0.20
2018-02-06T08:56:22.079Z,-0.20
2018-02-06T08:58:49.615Z,-0.30
2018-02-06T09:01:17.070Z,-0.30
2018-02-06T09:03:44.539Z,-0.40
2018-02-06T09:06:12.005Z,-0.50
2018-02-06T09:08:39.460Z,-0.50
2018-02-06T09:11:06.985Z,-0.50
2018-02-06T09:13:34.469Z,-0.50
2018-02-06T09:16:01.945Z,-0.60
2018-02-06T09:18:29.430Z,-0.50
2018-02-06T09:20:56.941Z,-0.40
2018-02-06T09:23:24.466Z,-0.20
2018-02-06T09:25:51.986Z,-0.10
2018-02-06T09:28:19.471Z,0.00
2018-02-06T09:30:46.930Z,0.10
2018-02-06T09:33:14.381Z,0.20
2018-02-06T09:35:41.835Z,0.40
2018-02-06T09:38:09.379Z,0.50
2018-02-06T09:40:36.862Z,0.70
2018-02-06T09:43:04.330Z,1.10
2018-02-06T09:45:31.877Z,1.40
2018-02-06T09:47:59.297Z,1.60
2018-02-06T09:50:26.793Z,2.00
2018-02-06T09:52:54.276Z,2.40
2018-02-06T09:55:21.829Z,2.60
2018-02-06T09:57:49.295Z,2.70
2018-02-06T10:00:17.538Z,2.60
2018-02-06T10:02:45.011Z,2.60
2018-02-06T10:05:12.492Z,3.00
2018-02-06T10:07:39.961Z,3.00
2018-02-06T10:10:07.475Z,3.40
2018-02-06T10:12:34.925Z,3.90
2018-02-06T10:15:02.386Z,4.10
2018-02-06T10:17:29.905Z,4.00
2018-02-06T10:19:57.369Z,3.50
2018-02-06T10:22:24.869Z,3.60
2018-02-06T10:24:52.361Z,5.50
2018-02-06T10:27:19.840Z,7.30
2018-02-06T10:29:47.311Z,9.50
2018-02-06T10:32:14.777Z,10.80
2018-02-06T10:34:42.237Z,11.60
2018-02-06T10:37:09.757Z,11.70
2018-02-06T10:39:37.214Z,12.80
2018-02-06T10:42:04.688Z,12.70
2018-02-06T10:44:32.146Z,14.40
2018-02-06T10:46:59.627Z,13.60
2018-02-06T10:49:27.229Z,13.40
2018-02-06T10:51:55.455Z,13.30
2018-02-06T10:54:22.963Z,13.20
2018-02-06T10:56:50.420Z,12.10
2018-02-06T10:59:17.916Z,11.90
2018-02-06T11:01:45.402Z,12.50
2018-02-06T11:04:12.882Z,12.10
2018-02-06T11:06:40.361Z,12.20
2018-02-06T11:09:07.842Z,12.40
2018-02-06T11:11:35.313Z,12.00
2018-02-06T11:14:02.809Z,12.60
2018-02-06T11:16:30.289Z,12.50
2018-02-06T11:18:57.749Z,12.90
2018-02-06T11:21:25.256Z,12.60
2018-02-06T11:23:52.724Z,11.50
2018-02-06T11:26:20.186Z,11.10
2018-02-06T11:28:47.753Z,9.50
2018-02-06T11:31:15.977Z,6.80
2018-02-06T11:33:43.485Z,6.80
2018-02-06T11:36:10.945Z,6.40
2018-02-06T11:38:38.410Z,6.20
2018-02-06T11:41:05.858Z,5.60
2018-02-06T11:43:33.325Z,5.70
2018-02-06T11:46:00.891Z,5.50
2018-02-06T11:48:28.365Z,5.60
2018-02-06T11:50:55.821Z,5.20
2018-02-06T11:53:23.334Z,5.10
2018-02-06T11:55:50.789Z,5.40
2018-02-06T11:58:18.262Z,5.50
2018-02-06T12:00:45.775Z,5.60
2018-02-06T12:03:13.238Z,5.90
2018-02-06T12:05:40.735Z,6.20
2018-02-06T12:08:08.201Z,6.50
2018-02-06T12:10:35.665Z,6.90
2018-02-06T12:13:03.146Z,6.60
2018-02-06T12:15:30.602Z,7.10
2018-02-06T12:17:58.065Z,6.90
2018-02-06T12:20:25.627Z,7.00
2018-02-06T12:22:53.114Z,7.60
2018-02-06T12:25:20.588Z,7.70
2018-02-06T12:27:48.050Z,8.00
2018-02-06T12:30:15.549Z,7.50
2018-02-06T12:32:43.030Z,7.50
2018-02-06T12:35:10.480Z,7.30
2018-02-06T12:37:37.965Z,7.20
2018-02-06T12:40:05.413Z,7.30
2018-02-06T12:42:32.962Z,7.30
2018-02-06T12:45:00.446Z,7.10
2018-02-06T12:47:27.912Z,7.50
2018-02-06T12:49:55.389Z,7.60
2018-02-06T12:52:22.845Z,7.60
2018-02-06T12:54:50.301Z,7.20
2018-02-06T12:57:17.757Z,6.90
2018-02-06T12:59:45.235Z,6.70
2018-02-06T13:02:12.702Z,6.60
2018-02-06T13:04:41.137Z,6.30
2018-02-06T13:07:08.702Z,6.10
2018-02-06T13:09:36.185Z,6.00
2018-02-06T13:12:03.661Z,5.70
2018-02-06T13:14:31.113Z,5.40
2018-02-06T13:16:58.638Z,5.30
2018-02-06T13:19:26.117Z,5.10
2018-02-06T13:21:53.607Z,4.90
2018-02-06T13:24:21.071Z,4.50
2018-02-06T13:26:48.569Z,4.60
2018-02-06T13:29:16.146Z,4.70
2018-02-06T13:31:43.624Z,4.80
2018-02-06T13:34:11.121Z,4.70
2018-02-06T13:36:38.592Z,4.80
2018-02-06T13:39:06.072Z,4.90
2018-02-06T13:41:33.557Z,5.00
2018-02-06T13:44:01.041Z,5.20
2018-02-06T13:46:28.498Z,5.30
2018-02-06T13:48:55.957Z,5.20
2018-02-06T13:51:23.483Z,5.20
2018-02-06T13:53:51.679Z,4.90
2018-02-06T13:56:19.154Z,4.70
2018-02-06T13:58:46.616Z,4.50
2018-02-06T14:01:14.070Z,4.50
2018-02-06T14:03:42.306Z,4.60
2018-02-06T14:06:09.797Z,4.60
2018-02-06T14:08:37.262Z,4.70
2018-02-06T14:11:05.513Z,4.60
2018-02-06T14:13:32.994Z,4.60
2018-02-06T14:16:00.469Z,4.60
2018-02-06T14:18:27.950Z,4.50
2018-02-06T14:20:55.411Z,4.40
2018-02-06T14:23:22.873Z,4.20
2018-02-06T14:25:50.330Z,4.10
2018-02-06T14:28:18.593Z,3.90
2018-02-06T14:30:46.077Z,3.90
2018-02-06T14:33:13.590Z,3.90
2018-02-06T14:35:41.138Z,4.00
2018-02-06T14:41:01.968Z,3.90
2018-02-06T14:43:30.213Z,3.80
2018-02-06T14:45:57.670Z,3.80
2018-02-06T14:48:25.182Z,3.80
2018-02-06T14:50:52.641Z,3.70
2018-02-06T14:53:20.293Z,3.50
2018-02-06T14:55:47.745Z,3.50
2018-02-06T14:58:15.217Z,3.50
2018-02-06T15:00:42.674Z,3.40
2018-02-06T15:03:10.896Z,3.30
2018-02-06T15:05:39.130Z,3.20
2018-02-06T15:08:06.593Z,3.20
2018-02-06T15:10:35.107Z,3.00
2018-02-06T15:13:03.333Z,2.90
2018-02-06T15:15:30.838Z,2.90
2018-02-06T15:17:58.316Z,2.90
2018-02-06T15:20:25.781Z,2.80
2018-02-06T15:22:53.289Z,2.80
2018-02-06T15:25:20.856Z,2.80
2018-02-06T15:27:48.317Z,2.70
2018-02-06T15:30:15.770Z,2.70
2018-02-06T15:32:43.226Z,2.60
2018-02-06T15:35:10.678Z,2.50
2018-02-06T15:37:38.201Z,2.50
2018-02-06T15:40:05.654Z,2.40
2018-02-06T15:42:33.157Z,2.40
2018-02-06T15:45:00.638Z,2.30
2018-02-06T15:47:28.103Z,2.20
2018-02-06T15:49:55.549Z,2.30
2018-02-06T15:52:23.806Z,2.10
2018-02-06T15:55:37.738Z,2.00
2018-02-06T15:58:05.965Z,1.90
2018-02-06T16:00:33.425Z,1.90
2018-02-06T16:03:01.103Z,1.90
2018-02-06T16:05:29.346Z,1.70
2018-02-06T16:07:56.828Z,1.70
2018-02-06T16:10:24.305Z,1.70
2018-02-06T16:12:52.539Z,1.50
2018-02-06T16:15:20.907Z,1.50
2018-02-06T16:17:48.397Z,1.50
2018-02-06T16:20:16.025Z,1.40
2018-02-06T16:22:43.504Z,1.30
2018-02-06T16:25:11.740Z,1.20
2018-02-06T16:27:39.989Z,1.20
2018-02-06T16:30:07.505Z,1.10
2018-02-06T16:32:34.979Z,1.10
2018-02-06T16:35:03.273Z,1.10
2018-02-06T16:37:30.756Z,1.00
2018-02-06T16:39:58.340Z,1.00
2018-02-06T16:42:25.824Z,1.00
2018-02-06T16:44:54.084Z,0.90
2018-02-06T16:47:21.595Z,0.90
2018-02-06T16:49:49.755Z,0.80
2018-02-06T16:52:18.363Z,0.80
2018-02-06T16:54:46.273Z,0.70
2018-02-06T16:57:13.754Z,0.80
2018-02-06T16:59:41.280Z,0.70
2018-02-06T17:02:09.508Z,0.60
2018-02-06T17:04:37.754Z,0.60
2018-02-06T17:07:05.976Z,0.60
2018-02-06T17:09:33.507Z,0.60
2018-02-06T17:12:00.969Z,0.50
2018-02-06T17:14:28.740Z,0.50
2018-02-06T17:16:57.362Z,0.50
2018-02-06T17:19:25.041Z,0.40
2018-02-06T17:22:22.794Z,0.40
2018-02-06T17:24:50.318Z,0.40
2018-02-06T17:27:17.766Z,0.40
2018-02-06T17:29:45.257Z,0.30
2018-02-06T17:32:12.712Z,0.20
2018-02-06T17:34:40.947Z,0.10
2018-02-06T17:37:08.398Z,0.00
2018-02-06T17:39:36.649Z,-0.10
2018-02-06T17:42:04.146Z,-0.10
2018-02-06T17:44:31.609Z,-0.20
2018-02-06T17:46:59.066Z,-0.30
2018-02-06T17:49:26.525Z,-0.40
2018-02-06T17:51:54.769Z,-0.60
2018-02-06T17:54:22.234Z,-0.60
2018-02-06T17:56:50.466Z,-0.80
2018-02-06T17:59:17.928Z,-0.80
2018-02-06T18:01:45.415Z,-0.90
2018-02-06T18:04:12.925Z,-0.90
2018-02-06T18:06:40.408Z,-1.00
2018-02-06T18:09:07.865Z,-1.00
2018-02-06T18:11:35.845Z,-1.10
2018-02-06T18:14:04.379Z,-1.20
2018-02-06T18:16:32.716Z,-1.20
2018-02-06T18:19:01.032Z,-1.30
2018-02-06T18:21:28.645Z,-1.30
2018-02-06T18:23:56.124Z,-1.30
2018-02-06T18:26:23.639Z,-1.40
2018-02-06T18:28:51.201Z,-1.50
2018-02-06T18:31:18.691Z,-1.50
2018-02-06T18:33:46.160Z,-1.60
2018-02-06T18:36:14.425Z,-1.70
2018-02-06T18:38:41.942Z,-1.70
2018-02-06T18:41:09.608Z,-1.70
2018-02-06T18:43:37.550Z,-1.80
2018-02-06T18:46:05.094Z,-1.80
2018-02-06T18:48:32.588Z,-1.90
2018-02-06T18:51:00.086Z,-1.90
2018-02-06T18:53:29.237Z,-2.00
2018-02-06T18:55:56.830Z,-2.00
2018-02-06T18:58:24.502Z,-1.90
2018-02-06T19:00:52.083Z,-2.00
2018-02-06T19:03:19.712Z,-2.10
2018-02-06T19:05:47.980Z,-2.20
2018-02-06T19:08:15.473Z,-2.20
2018-02-06T19:10:42.950Z,-2.20
2018-02-06T19:13:11.929Z,-2.30
2018-02-06T19:15:39.450Z,-2.30
2018-02-06T19:18:07.081Z,-2.20
2018-02-06T19:20:34.622Z,-2.10
2018-02-06T19:23:02.204Z,-2.20
2018-02-06T19:25:29.857Z,-2.30
2018-02-06T19:27:57.363Z,-2.40
2018-02-06T19:30:24.876Z,-2.50
2018-02-06T19:32:52.373Z,-2.50
2018-02-06T19:35:19.896Z,-2.50
2018-02-06T19:37:47.395Z,-2.50
2018-02-06T19:40:16.438Z,-2.60
2018-02-06T19:42:44.124Z,-2.60
2018-02-06T19:45:11.583Z,-2.60
2018-02-06T19:47:39.999Z,-2.60
2018-02-06T19:50:07.487Z,-2.60
2018-02-06T19:52:35.016Z,-2.60
2018-02-06T19:55:02.588Z,-2.70
2018-02-06T19:57:30.059Z,-2.70
2018-02-06T19:59:57.552Z,-2.70
2018-02-06T20:02:25.276Z,-2.70
2018-02-06T20:04:52.809Z,-2.70
2018-02-06T20:07:21.123Z,-2.90
2018-02-06T20:09:48.652Z,-2.90
2018-02-06T20:12:16.880Z,-2.90
2018-02-06T20:14:45.532Z,-2.90
2018-02-06T20:17:13.766Z,-2.90
2018-02-06T20:19:42.068Z,-2.90
2018-02-06T20:22:09.618Z,-2.90
2018-02-06T20:24:37.149Z,-3.00
2018-02-06T20:27:04.620Z,-3.00
2018-02-06T20:29:32.089Z,-3.10
2018-02-06T20:31:59.577Z,-3.10
2018-02-06T20:34:27.097Z,-3.10
2018-02-06T20:36:54.573Z,-3.20
2018-02-06T20:39:22.850Z,-3.20
2018-02-06T20:41:50.416Z,-3.30
2018-02-06T20:44:18.669Z,-3.30
2018-02-06T20:46:46.173Z,-3.30
2018-02-06T20:49:13.696Z,-3.20
2018-02-06T20:51:41.184Z,-3.20
2018-02-06T20:54:09.502Z,-3.20
2018-02-06T20:56:36.970Z,-3.20
2018-02-06T20:59:04.486Z,-3.20
2018-02-06T21:01:32.004Z,-3.30
2018-02-06T21:03:59.532Z,-3.30
2018-02-06T21:06:27.058Z,-3.30
2018-02-06T21:08:54.877Z,-3.30
2018-02-06T21:11:22.486Z,-3.30
2018-02-06T21:13:50.021Z,-3.40
2018-02-06T21:16:17.535Z,-3.40
2018-02-06T21:18:45.061Z,-3.50
2018-02-06T21:21:12.564Z,-3.50
2018-02-06T21:23:40.076Z,-3.50
2018-02-06T21:26:07.545Z,-3.50
2018-02-06T21:28:35.156Z,-3.50
2018-02-06T21:31:03.574Z,-3.70
2018-02-06T21:33:31.107Z,-3.70
2018-02-06T21:35:58.640Z,-3.70
2018-02-06T21:38:26.880Z,-3.70
2018-02-06T21:40:54.397Z,-3.70
2018-02-06T21:43:22.045Z,-3.70
2018-02-06T21:45:49.515Z,-3.70
2018-02-06T21:48:17.037Z,-3.70
2018-02-06T21:50:45.279Z,-3.80
2018-02-06T21:53:12.780Z,-3.80
2018-02-06T21:55:40.257Z,-3.80
2018-02-06T21:58:07.769Z,-3.90
2018-02-06T22:00:35.252Z,-3.90
2018-02-06T22:03:02.735Z,-3.90
2018-02-06T22:05:30.197Z,-3.90
2018-02-06T22:07:57.673Z,-3.90
2018-02-06T22:10:25.239Z,-3.90
2018-02-06T22:12:53.508Z,-3.90
2018-02-06T22:15:20.987Z,-3.90
2018-02-06T22:17:48.460Z,-3.90
2018-02-06T22:20:15.949Z,-3.90
2018-02-06T22:22:43.416Z,-4.00
2018-02-06T22:25:10.896Z,-4.10
2018-02-06T22:27:39.135Z,-4.10
2018-02-06T22:30:06.647Z,-4.10
2018-02-06T22:32:34.147Z,-4.10
2018-02-06T22:35:01.626Z,-4.10
2018-02-06T22:37:29.114Z,-4.20
2018-02-06T22:39:56.581Z,-4.20
2018-02-06T22:42:24.060Z,-4.20
2018-02-06T22:44:51.544Z,-4.20
2018-02-06T22:47:19.039Z,-4.30
2018-02-06T22:49:46.560Z,-4.20
2018-02-06T22:52:14.051Z,-4.20
2018-02-06T22:54:41.520Z,-4.20
2018-02-06T22:57:08.989Z,-4.20
2018-02-06T22:59:36.476Z,-4.20
2018-02-06T23:02:03.965Z,-4.10
2018-02-06T23:04:31.549Z,-4.20
2018-02-06T23:06:59.011Z,-4.20
2018-02-06T23:09:26.486Z,-4.20
2018-02-06T23:11:54.735Z,-4.20
2018-02-06T23:14:22.220Z,-4.20
2018-02-06T23:16:49.703Z,-4.10
2018-02-06T23:19:17.187Z,-4.10
2018-02-06T23:21:44.664Z,-4.10
2018-02-06T23:24:12.145Z,-4.10
2018-02-06T23:26:39.612Z,-4.20
2018-02-06T23:29:07.079Z,-4.20
2018-02-06T23:31:35.317Z,-4.30
2018-02-06T23:34:02.830Z,-4.30
2018-02-06T23:36:30.408Z,-4.20
2018-02-06T23:38:57.896Z,-4.20
2018-02-06T23:41:25.360Z,-4.20
2018-02-06T23:43:52.839Z,-4.20
2018-02-06T23:46:20.335Z,-4.30
2018-02-06T23:48:47.834Z,-4.30
2018-02-06T23:51:15.362Z,-4.30
2018-02-06T23:53:42.820Z,-4.40
2018-02-06T23:56:10.381Z,-4.40
2018-02-06T23:58:37.858Z,-4.50
